No particular awareness of the weather is required.    There are no Weather-warnings


Meteo18 Weather Cam more information Meteo18 Weather Cam


Thunder radar more information blitzortung!


Rain radar more information rain snow radar


Visit our other weather sites:

Template documentation
and downloads

And another site



Weather Underground History page Text

Daily Summary for November 5, 2017 Units:  English    Metric   Both
« Previous Day
Next Day »
Daily Weekly Monthly Yearly Custom
  High: Low: Average:
Temperature: 52.7 °F 39 °F 45.7 °F
Dew Point: 51.6 °F 35.4 °F 40.6 °F
Humidity: 96 % 64 % 83 %
Wind Speed: 16 mph 0 mph 3.9 mph
Wind Gust: 32 mph - -
Wind:- - WNW
Pressure: 30.2 in 29.8 in -
Precipitation: 0.17 in    
Historical Graphs
 
 
Tabular Data for November 5, 2017
Time Temperature Dew Point Pressure Wind Wind Speed Wind Gust Humidity Rainfall Rate (Hourly)
00:02 51.4 °F 49.8 °F 29.8 in Calm   1 mph 94 % 0.04 in
00:07 51.4 °F 49.8 °F 29.8 in Calm   1 mph 94 % 0.04 in
00:12 51.3 °F 49.6 °F 29.8 in Calm     94 % 0.04 in
00:17 51.1 °F 49.5 °F 29.8 in Calm     94 % 0.04 in
00:22 51.1 °F 49.5 °F 29.8 in Calm     94 % 0.05 in
00:32 51.1 °F 49.5 °F 29.8 in Calm   1 mph 94 % 0.05 in
00:37 51.1 °F 49.6 °F 29.8 in Calm   1 mph 95 % 0.05 in
00:42 51.1 °F 49.6 °F 29.8 in SSW 1 mph 1 mph 95 % 0.03 in
00:47 51.3 °F 49.8 °F 29.8 in Calm   2 mph 95 % 0.02 in
00:52 51.4 °F 50 °F 29.8 in SW 1 mph 2 mph 95 % 0.02 in
01:02 52.2 °F 51.1 °F 29.8 in WSW 1 mph 3 mph 96 % 0.02 in
01:07 52.2 °F 51.1 °F 29.8 in WSW 1 mph 3 mph 96 % 0.02 in
01:12 52.3 °F 51.3 °F 29.8 in West 2 mph 3 mph 96 % 0.04 in
01:17 52.3 °F 51.3 °F 29.8 in West 3 mph 4 mph 96 % 0.06 in
01:22 52.5 °F 51.4 °F 29.8 in WSW 4 mph 6 mph 96 % 0.05 in
01:27 52.7 °F 51.6 °F 29.9 in West 7 mph 8 mph 96 % 0.06 in
01:32 51.4 °F 49.5 °F 29.8 in NNW 4 mph 32 mph 93 % 0.13 in
01:37 50.2 °F 48.2 °F 29.9 in NW 7 mph 32 mph 93 % 0.13 in
01:42 49.3 °F 47.3 °F 29.9 in NE 9 mph 32 mph 93 % 0.15 in
01:47 48.9 °F 46.9 °F 29.9 in NW 12 mph 21 mph 93 % 0.15 in
01:52 48.6 °F 46.6 °F 29.9 in NNW 7 mph 21 mph 93 % 0.16 in
01:57 48.6 °F 46.6 °F 29.9 in NW 8 mph 22 mph 93 % 0.15 in
02:02 48.4 °F 46.4 °F 29.9 in NNW 7 mph 22 mph 93 % 0.14 in
02:07 48.4 °F 46.4 °F 29.9 in NNW 16 mph 16 mph 93 % 0.13 in
02:12 48.4 °F 46.4 °F 29.9 in NNW 6 mph 16 mph 93 % 0.12 in
02:17 48.4 °F 46.4 °F 29.9 in NNE 10 mph 16 mph 93 % 0.11 in
02:22 48.4 °F 46.2 °F 29.9 in North 2 mph 16 mph 92 % 0.1 in
02:27 48.2 °F 46 °F 29.9 in WNW 6 mph 14 mph 92 % 0.09 in
02:32 48 °F 45.5 °F 29.9 in West 5 mph 16 mph 91 % 0.03 in
02:37 47.8 °F 45.3 °F 29.9 in WNW 6 mph 16 mph 91 % 0.02 in
02:42 47.8 °F 45.3 °F 29.9 in NNW 3 mph 16 mph 91 % 0.01 in
02:47 47.8 °F 45 °F 29.9 in North 3 mph 12 mph 90 % 0 in
02:52 47.7 °F 45 °F 29.9 in NNW 4 mph 12 mph 90 % 0 in
02:57 47.7 °F 45 °F 29.9 in WNW 5 mph 11 mph 90 % 0 in
03:02 47.7 °F 45 °F 29.9 in NNW 9 mph 11 mph 90 % 0 in
03:07 47.7 °F 45 °F 29.9 in NNW 2 mph 11 mph 90 % 0 in
03:12 47.5 °F 44.8 °F 29.9 in NW 2 mph 11 mph 90 % 0 in
03:17 47.5 °F 44.4 °F 29.9 in NNW 9 mph 11 mph 89 % 0 in
03:22 47.5 °F 44.4 °F 29.9 in NNW 9 mph 13 mph 89 % 0 in
03:27 46.9 °F 43.9 °F 29.9 in WNW 6 mph 13 mph 89 % 0 in
03:32 46.9 °F 43.9 °F 29.9 in WNW 6 mph 13 mph 89 % 0 in
03:37 46.9 °F 43.9 °F 29.9 in WNW 6 mph 11 mph 89 % 0 in
08:27 43.3 °F 40.8 °F 30 in WSW 1 mph -998.7 mph 91 % 0 in
08:32 43.5 °F 40.8 °F 30 in West 2 mph 3 mph 90 % 0 in
08:37 43.5 °F 40.8 °F 30 in NW 2 mph 3 mph 90 % 0 in
08:42 43.7 °F 41 °F 30 in West 3 mph 7 mph 90 % 0 in
08:47 43.9 °F 40.8 °F 30 in West 5 mph 10 mph 89 % 0 in
08:52 44.1 °F 41 °F 30 in West 4 mph 10 mph 89 % 0 in
08:57 44.2 °F 41.2 °F 30 in NW 5 mph 15 mph 89 % 0 in
09:02 44.4 °F 41.4 °F 30 in West 2 mph 15 mph 89 % 0 in
09:07 44.8 °F 41.7 °F 30 in West 3 mph 15 mph 89 % 0 in
09:12 44.8 °F 41.7 °F 30 in WSW 2 mph 8 mph 89 % 0 in
09:17 45 °F 41.5 °F 30 in WNW 6 mph 9 mph 88 % 0 in
09:27 45.1 °F 41.5 °F 30 in West 6 mph 12 mph 87 % 0 in
09:32 45.1 °F 41.2 °F 30 in NNW 7 mph 12 mph 86 % 0 in
09:37 45.3 °F 41.4 °F 30 in WNW 4 mph 19 mph 86 % 0 in
09:42 45.5 °F 41.5 °F 30 in West 6 mph 19 mph 86 % 0 in
09:47 45.9 °F 41.9 °F 30 in West 5 mph 19 mph 86 % 0 in
09:52 46 °F 42.1 °F 30 in WNW 12 mph 13 mph 86 % 0 in
09:57 46 °F 42.1 °F 30 in WNW 6 mph 13 mph 86 % 0 in
10:02 46.2 °F 42.3 °F 30 in WNW 4 mph 14 mph 86 % 0 in
10:12 45.7 °F 41.7 °F 30 in West 9 mph 19 mph 86 % 0 in
10:17 45.7 °F 41.7 °F 30 in WNW 6 mph 19 mph 86 % 0 in
10:22 45.7 °F 41.4 °F 30 in West 6 mph 16 mph 85 % 0 in
10:27 46 °F 42.1 °F 30 in WNW 3 mph 16 mph 86 % 0 in
10:32 46.4 °F 42.1 °F 30 in WNW 4 mph 15 mph 85 % 0 in
10:37 46.8 °F 41.9 °F 30 in WNW 5 mph 15 mph 83 % 0 in
10:42 46.9 °F 42.1 °F 30 in West 6 mph 15 mph 83 % 0 in
10:47 47.3 °F 42.4 °F 30 in West 7 mph 15 mph 83 % 0 in
10:52 46.9 °F 41.7 °F 30 in West 4 mph 16 mph 82 % 0 in
10:57 47.1 °F 42.3 °F 30 in WNW 11 mph 18 mph 83 % 0 in
11:02 47.1 °F 41.9 °F 30 in NNW 8 mph 18 mph 82 % 0 in
11:07 46.8 °F 41.5 °F 30 in NW 9 mph 18 mph 82 % 0 in
11:12 46.9 °F 42.1 °F 30 in NW 6 mph 18 mph 83 % 0 in
11:17 47.1 °F 41.9 °F 30 in West 1 mph 18 mph 82 % 0 in
11:27 47.7 °F 42.1 °F 30 in NW 11 mph 15 mph 81 % 0 in
11:32 47.5 °F 41.9 °F 30 in WSW 3 mph 15 mph 81 % 0 in
11:37 47.1 °F 41.5 °F 30 in WNW 5 mph 15 mph 81 % 0 in
11:42 47.1 °F 41.4 °F 30 in WNW 4 mph 15 mph 80 % 0 in
11:47 47.7 °F 41.5 °F 30 in WNW 6 mph 15 mph 79 % 0 in
11:52 47.8 °F 41.7 °F 30 in WNW 11 mph 14 mph 79 % 0 in
11:57 48.2 °F 42.1 °F 30 in WSW 4 mph 14 mph 79 % 0 in
12:02 48.7 °F 42.4 °F 30 in West 9 mph 14 mph 79 % 0 in
12:07 48.6 °F 41.7 °F 30 in WNW 9 mph 14 mph 77 % 0 in
12:12 48.6 °F 41 °F 30 in NW 11 mph 14 mph 75 % 0 in
12:17 48.4 °F 40.1 °F 30 in WNW 6 mph 14 mph 73 % 0 in
12:22 48.6 °F 40.3 °F 30 in NW 4 mph 14 mph 73 % 0 in
12:32 49.1 °F 40.8 °F 30 in West 9 mph 16 mph 73 % 0 in
12:37 48.6 °F 40.3 °F 30 in West 5 mph 20 mph 73 % 0 in
12:42 48.7 °F 40.1 °F 30.1 in NW 10 mph 20 mph 72 % 0 in
12:47 48.7 °F 40.1 °F 30 in WNW 12 mph 20 mph 72 % 0 in
12:52 48.9 °F 39.9 °F 30 in NNW 7 mph 22 mph 71 % 0 in
12:57 49.5 °F 41.2 °F 30 in West 5 mph 22 mph 73 % 0 in
13:02 48.9 °F 39.6 °F 30 in NW 6 mph 15 mph 70 % 0 in
13:07 48.7 °F 39.7 °F 30 in West 7 mph 17 mph 71 % 0 in
13:17 48.9 °F 40.3 °F 30 in West 8 mph 17 mph 72 % 0 in
13:22 49.1 °F 39.7 °F 30 in West 8 mph 15 mph 70 % 0 in
13:27 49.3 °F 39.9 °F 30 in WNW 6 mph 15 mph 70 % 0 in
13:32 49.5 °F 39.7 °F 30 in West 3 mph 16 mph 69 % 0 in
13:37 49.8 °F 40.5 °F 30 in WNW 3 mph 16 mph 70 % 0 in
13:42 50.2 °F 39.6 °F 30 in NNW 2 mph 16 mph 67 % 0 in
13:47 49.8 °F 39.7 °F 30 in WNW 8 mph 12 mph 68 % 0 in
13:52 49.5 °F 40.1 °F 30 in NW 10 mph 16 mph 70 % 0 in
13:57 49.5 °F 38.7 °F 30 in WNW 5 mph 16 mph 66 % 0 in
14:02 49.5 °F 39.4 °F 30 in WNW 4 mph 16 mph 68 % 0 in
14:07 49.1 °F 38.7 °F 30 in West 7 mph 12 mph 67 % 0 in
14:12 48.9 °F 39.2 °F 30 in WSW 3 mph 15 mph 69 % 0 in
14:17 48.7 °F 39.7 °F 30 in NW 4 mph 15 mph 71 % 0 in
14:22 48.6 °F 39.6 °F 30 in WNW 4 mph 15 mph 71 % 0 in
14:27 48.2 °F 39.9 °F 30 in NW 5 mph 11 mph 73 % 0 in
14:32 48.6 °F 40.6 °F 30 in NW 2 mph 11 mph 74 % 0 in
14:37 48.7 °F 40.1 °F 30 in WSW 1 mph 11 mph 72 % 0 in
14:42 48.6 °F 39.9 °F 30 in WNW 2 mph 11 mph 72 % 0 in
14:47 48.7 °F 39.4 °F 30 in NW 4 mph 9 mph 70 % 0 in
14:57 49.3 °F 37.9 °F 30 in NW 7 mph 16 mph 65 % 0 in
15:07 49.6 °F 38.7 °F 30.1 in NW 4 mph 15 mph 66 % 0 in
15:12 49.6 °F 38.3 °F 30.1 in WNW 3 mph 15 mph 65 % 0 in
15:17 49.8 °F 38.5 °F 30.1 in NW 11 mph 15 mph 65 % 0 in
15:22 49.8 °F 38.1 °F 30.1 in NNW 10 mph 14 mph 64 % 0 in
15:32 47.8 °F 39.2 °F 30.1 in North 4 mph 15 mph 72 % 0 in
15:37 47.5 °F 39.2 °F 30.1 in WNW 2 mph 15 mph 73 % 0 in
15:42 47.3 °F 39.7 °F 30.1 in NNW 2 mph 14 mph 75 % 0 in
15:47 47.1 °F 39.6 °F 30.1 in WNW 3 mph 11 mph 75 % 0 in
15:52 47.1 °F 39.9 °F 30.1 in Calm   8 mph 76 % 0 in
15:57 47.7 °F 40.1 °F 30.1 in NNW 1 mph 8 mph 75 % 0 in
16:02 47.8 °F 39.9 °F 30.1 in WNW 3 mph 7 mph 74 % 0 in
16:12 48.4 °F 39.7 °F 30.1 in NNW 3 mph 6 mph 72 % 0 in
16:17 48.4 °F 39 °F 30.1 in NW 2 mph 8 mph 70 % 0 in
16:22 48.4 °F 39 °F 30.1 in WNW 3 mph 8 mph 70 % 0 in
16:27 48.6 °F 39.2 °F 30.1 in West 2 mph 8 mph 70 % 0 in
16:32 48.7 °F 39.7 °F 30.1 in WNW 7 mph 7 mph 71 % 0 in
16:37 48.7 °F 38.7 °F 30.1 in NNW 3 mph 10 mph 68 % 0 in
16:42 48.9 °F 39.2 °F 30.1 in WNW 6 mph 11 mph 69 % 0 in
16:47 48.9 °F 38.8 °F 30.1 in NNW 7 mph 11 mph 68 % 0 in
16:52 48.7 °F 38.7 °F 30.1 in NW 10 mph 11 mph 68 % 0 in
16:57 48.6 °F 38.8 °F 30.1 in WNW 6 mph 13 mph 69 % 0 in
17:02 48.4 °F 38.7 °F 30.1 in West 8 mph 13 mph 69 % 0 in
17:07 48 °F 39 °F 30.1 in WNW 3 mph 13 mph 71 % 0 in
17:12 47.7 °F 38.3 °F 30.1 in NW 4 mph 11 mph 70 % 0 in
17:17 47.5 °F 38.5 °F 30.1 in West 2 mph 9 mph 71 % 0 in
17:27 46.8 °F 38.3 °F 30.1 in WNW 6 mph 9 mph 72 % 0 in
17:32 46.6 °F 38.5 °F 30.1 in WNW 5 mph 9 mph 73 % 0 in
17:37 46 °F 38.3 °F 30.1 in WNW 3 mph 9 mph 74 % 0 in
17:42 45.9 °F 38.1 °F 30.1 in WNW 3 mph 8 mph 74 % 0 in
17:47 45.7 °F 37.9 °F 30.1 in NW 5 mph 7 mph 74 % 0 in
17:52 45.5 °F 38.1 °F 30.1 in WNW 2 mph 8 mph 75 % 0 in
17:57 45.1 °F 37.9 °F 30.1 in WNW 1 mph 8 mph 76 % 0 in
18:02 45 °F 38.1 °F 30.1 in WNW 4 mph 8 mph 77 % 0 in
18:12 44.4 °F 37.9 °F 30.1 in WNW 1 mph 4 mph 78 % 0 in
18:17 44.2 °F 37.8 °F 30.1 in WNW 1 mph 4 mph 78 % 0 in
18:27 43.5 °F 37.8 °F 30.1 in West 2 mph 3 mph 80 % 0 in
18:32 43.3 °F 37.9 °F 30.1 in Calm   2 mph 81 % 0 in
18:37 43.2 °F 37.8 °F 30.1 in WNW 1 mph 3 mph 81 % 0 in
18:42 42.8 °F 37.8 °F 30.1 in WNW 3 mph 4 mph 82 % 0 in
18:47 43 °F 37.9 °F 30.1 in WNW 5 mph 5 mph 82 % 0 in
18:57 42.8 °F 37.8 °F 30.1 in WNW 2 mph 6 mph 82 % 0 in
19:02 42.4 °F 37.4 °F 30.1 in Calm   5 mph 82 % 0 in
19:07 42.4 °F 37.6 °F 30.1 in WNW 1 mph 5 mph 83 % 0 in
19:12 42.3 °F 37.4 °F 30.1 in Calm   3 mph 83 % 0 in
19:17 42.3 °F 37.4 °F 30.1 in West 2 mph 2 mph 83 % 0 in
19:22 42.3 °F 37.4 °F 30.1 in WSW 2 mph 3 mph 83 % 0 in
19:27 42.1 °F 37.2 °F 30.1 in Calm   3 mph 83 % 0 in
19:32 41.7 °F 37.2 °F 30.1 in West 1 mph 3 mph 84 % 0 in
19:37 41.7 °F 37.6 °F 30.1 in WNW 2 mph 4 mph 85 % 0 in
19:42 41.7 °F 37.2 °F 30.1 in WNW 3 mph 4 mph 84 % 0 in
19:47 41.7 °F 37.6 °F 30.1 in WNW 3 mph 5 mph 85 % 0 in
19:52 41.5 °F 37.4 °F 30.1 in WNW 3 mph 5 mph 85 % 0 in
19:57 41.5 °F 37.4 °F 30.1 in WNW 1 mph 5 mph 85 % 0 in
20:02 41.4 °F 37.2 °F 30.1 in WNW 3 mph 4 mph 85 % 0 in
20:07 41.4 °F 37.2 °F 30.1 in NW 1 mph 4 mph 85 % 0 in
20:12 41.2 °F 37 °F 30.1 in Calm   3 mph 85 % 0 in
20:17 41 °F 37.2 °F 30.1 in Calm   3 mph 86 % 0 in
20:22 40.8 °F 37 °F 30.1 in Calm   2 mph 86 % 0 in
20:27 40.8 °F 37 °F 30.1 in Calm   1 mph 86 % 0 in
20:32 40.5 °F 36.7 °F 30.1 in Calm   2 mph 86 % 0 in
20:37 40.3 °F 36.7 °F 30.1 in Calm   2 mph 87 % 0 in
20:42 40.5 °F 36.9 °F 30.1 in Calm     87 % 0 in
20:47 40.6 °F 37 °F 30.1 in WNW 1 mph 1 mph 87 % 0 in
20:57 40.6 °F 36.9 °F 30.1 in WNW 1 mph 2 mph 86 % 0 in
21:02 40.6 °F 36.9 °F 30.1 in Calm   3 mph 86 % 0 in
21:07 40.6 °F 36.9 °F 30.1 in Calm   3 mph 86 % 0 in
21:12 40.5 °F 36.3 °F 30.1 in Calm   3 mph 85 % 0 in
21:17 39.9 °F 36.1 °F 30.1 in Calm   2 mph 86 % 0 in
21:22 39.7 °F 36.1 °F 30.1 in Calm   2 mph 87 % 0 in
21:27 39.9 °F 36.3 °F 30.1 in Calm   1 mph 87 % 0 in
21:32 39.7 °F 36.1 °F 30.1 in Calm   2 mph 87 % 0 in
21:37 39.6 °F 36 °F 30.1 in Calm   2 mph 87 % 0 in
21:42 39 °F 35.4 °F 30.1 in Calm   2 mph 87 % 0 in
21:47 39 °F 35.8 °F 30.1 in WNW 1 mph 2 mph 88 % 0 in
21:52 39 °F 35.8 °F 30.1 in WNW 1 mph 2 mph 88 % 0 in
21:57 39.2 °F 36 °F 30.1 in NW 1 mph 3 mph 88 % 0 in
22:02 39.4 °F 36.5 °F 30.1 in WNW 1 mph 3 mph 89 % 0 in
22:07 39.6 °F 36.3 °F 30.1 in West 2 mph 3 mph 88 % 0 in
22:12 39.6 °F 36.3 °F 30.2 in WNW 1 mph 3 mph 88 % 0 in
22:17 39.6 °F 36.3 °F 30.2 in Calm   3 mph 88 % 0 in
22:22 39.6 °F 36.3 °F 30.2 in NW 1 mph 3 mph 88 % 0 in
22:27 39.6 °F 36.3 °F 30.2 in NW 2 mph 3 mph 88 % 0 in
22:32 39.6 °F 36.3 °F 30.2 in NW 1 mph 4 mph 88 % 0 in
22:37 39.6 °F 36.3 °F 30.2 in NW 1 mph 4 mph 88 % 0 in
22:42 39.6 °F 36.3 °F 30.2 in WNW 3 mph 4 mph 88 % 0 in
22:47 39.7 °F 36.5 °F 30.2 in NW 1 mph 5 mph 88 % 0 in
22:52 39.7 °F 36.5 °F 30.2 in WNW 5 mph 6 mph 88 % 0 in
22:57 39.7 °F 36.5 °F 30.2 in WNW 3 mph 7 mph 88 % 0 in
23:02 39.6 °F 36.3 °F 30.2 in WNW 3 mph 7 mph 88 % 0 in
23:07 39.6 °F 36.5 °F 30.2 in NNW 2 mph 7 mph 89 % 0 in
23:12 39.6 °F 36.5 °F 30.2 in WNW 4 mph 7 mph 89 % 0 in
23:17 39.6 °F 36.5 °F 30.2 in NNW 2 mph 8 mph 89 % 0 in
23:22 39.7 °F 36.7 °F 30.2 in NW 4 mph 8 mph 89 % 0 in
23:32 39.6 °F 36.9 °F 30.2 in NNW 1 mph 6 mph 90 % 0 in
23:37 39.6 °F 36.9 °F 30.2 in WNW 2 mph 5 mph 90 % 0 in
23:42 39.6 °F 36.9 °F 30.2 in NNW 3 mph 4 mph 90 % 0 in
23:47 39.6 °F 36.9 °F 30.2 in NW 4 mph 5 mph 90 % 0 in
23:52 39.4 °F 36.7 °F 30.2 in Calm   5 mph 90 % 0 in
23:57 39.4 °F 37 °F 30.2 in NW 2 mph 5 mph 91 % 0 in
Meteo18
Compliments of Weather Underground - 4 mb

Script developed by  Jim McMurry - jmcmurry@mwt.net Adapted for the template by  Wim van der Kuil - Leuven-Template.eu

You find our weather info also at:

European Weather Network

Weather Underground

Equipment we use:

Weather-station
Davis Vue

Weather-program
Meteohub

Weather-server
Raspberry PI 2 B+

Provider
1 and 1

Davis Vue

Meteohub

Raspberry PI 2 B+

1 and 1